sensor_id;sensor_type;location;lat;lon;timestamp;pressure;altitude;pressure_sealevel;temperature
74043;BMP280;62384;53.600;10.040;2022-10-30T00:02:15;101089.63;;;15.72
74043;BMP280;62384;53.600;10.040;2022-10-30T00:04:40;101091.97;;;15.67
74043;BMP280;62384;53.600;10.040;2022-10-30T00:07:09;101085.00;;;15.69
74043;BMP280;62384;53.600;10.040;2022-10-30T00:09:34;101082.28;;;15.73
74043;BMP280;62384;53.600;10.040;2022-10-30T00:11:59;101090.06;;;15.81
74043;BMP280;62384;53.600;10.040;2022-10-30T00:14:24;101101.69;;;15.89
74043;BMP280;62384;53.600;10.040;2022-10-30T00:16:50;101097.84;;;15.86
74043;BMP280;62384;53.600;10.040;2022-10-30T00:19:15;101088.09;;;15.78
74043;BMP280;62384;53.600;10.040;2022-10-30T00:21:40;101071.44;;;15.66
74043;BMP280;62384;53.600;10.040;2022-10-30T00:24:06;101085.03;;;15.80
74043;BMP280;62384;53.600;10.040;2022-10-30T00:26:34;101079.56;;;15.66
74043;BMP280;62384;53.600;10.040;2022-10-30T00:29:00;101076.06;;;15.65
74043;BMP280;62384;53.600;10.040;2022-10-30T00:31:28;101069.88;;;15.61
74043;BMP280;62384;53.600;10.040;2022-10-30T00:34:09;101071.41;;;15.62
74043;BMP280;62384;53.600;10.040;2022-10-30T00:36:34;101068.34;;;15.60
74043;BMP280;62384;53.600;10.040;2022-10-30T00:39:00;101061.75;;;15.58
74043;BMP280;62384;53.600;10.040;2022-10-30T00:41:25;101060.16;;;15.53
74043;BMP280;62384;53.600;10.040;2022-10-30T00:43:51;101056.28;;;15.51
74043;BMP280;62384;53.600;10.040;2022-10-30T00:46:38;101052.81;;;15.50
74043;BMP280;62384;53.600;10.040;2022-10-30T00:51:36;101060.94;;;15.50
74043;BMP280;62384;53.600;10.040;2022-10-30T00:54:09;101062.03;;;15.46
74043;BMP280;62384;53.600;10.040;2022-10-30T00:56:35;101053.56;;;15.44
74043;BMP280;62384;53.600;10.040;2022-10-30T00:59:03;101055.50;;;15.47
74043;BMP280;62384;53.600;10.040;2022-10-30T01:01:39;101059.75;;;15.44
74043;BMP280;62384;53.600;10.040;2022-10-30T01:04:10;101060.50;;;15.41
74043;BMP280;62384;53.600;10.040;2022-10-30T01:06:38;101055.44;;;15.40
74043;BMP280;62384;53.600;10.040;2022-10-30T01:09:09;101070.94;;;15.46
74043;BMP280;62384;53.600;10.040;2022-10-30T01:11:38;101069.38;;;15.45
74043;BMP280;62384;53.600;10.040;2022-10-30T01:14:05;101056.22;;;15.37
74043;BMP280;62384;53.600;10.040;2022-10-30T01:16:53;101070.16;;;15.42
74043;BMP280;62384;53.600;10.040;2022-10-30T01:19:33;101070.19;;;15.49
74043;BMP280;62384;53.600;10.040;2022-10-30T01:22:29;101062.03;;;15.42
74043;BMP280;62384;53.600;10.040;2022-10-30T01:25:05;101068.59;;;15.38
74043;BMP280;62384;53.600;10.040;2022-10-30T01:27:45;101064.38;;;15.44
74043;BMP280;62384;53.600;10.040;2022-10-30T01:36:28;101069.84;;;15.54
74043;BMP280;62384;53.600;10.040;2022-10-30T01:39:29;101059.78;;;15.51
74043;BMP280;62384;53.600;10.040;2022-10-30T01:41:59;101064.00;;;15.49
74043;BMP280;62384;53.600;10.040;2022-10-30T01:44:31;101061.69;;;15.47
74043;BMP280;62384;53.600;10.040;2022-10-30T01:47:12;101046.97;;;15.41
74043;BMP280;62384;53.600;10.040;2022-10-30T01:50:16;101052.00;;;15.46
74043;BMP280;62384;53.600;10.040;2022-10-30T01:52:56;101056.63;;;15.42
74043;BMP280;62384;53.600;10.040;2022-10-30T01:55:56;101044.25;;;15.38
74043;BMP280;62384;53.600;10.040;2022-10-30T01:58:31;101039.56;;;15.35
74043;BMP280;62384;53.600;10.040;2022-10-30T02:00:59;101030.69;;;15.34
74043;BMP280;62384;53.600;10.040;2022-10-30T02:03:27;101034.16;;;15.31
74043;BMP280;62384;53.600;10.040;2022-10-30T02:05:53;101024.84;;;15.28
74043;BMP280;62384;53.600;10.040;2022-10-30T02:08:22;101034.09;;;15.24
74043;BMP280;62384;53.600;10.040;2022-10-30T02:10:50;101033.28;;;15.16
74043;BMP280;62384;53.600;10.040;2022-10-30T02:13:16;101022.06;;;15.14
74043;BMP280;62384;53.600;10.040;2022-10-30T02:15:46;101034.03;;;15.13
74043;BMP280;62384;53.600;10.040;2022-10-30T02:18:11;101024.34;;;15.05
74043;BMP280;62384;53.600;10.040;2022-10-30T02:20:39;101014.69;;;15.04
74043;BMP280;62384;53.600;10.040;2022-10-30T02:23:05;101022.41;;;15.09
74043;BMP280;62384;53.600;10.040;2022-10-30T02:25:38;101030.25;;;15.21
74043;BMP280;62384;53.600;10.040;2022-10-30T02:28:04;101028.28;;;15.15
74043;BMP280;62384;53.600;10.040;2022-10-30T02:30:29;101038.28;;;15.11
74043;BMP280;62384;53.600;10.040;2022-10-30T02:32:55;101031.69;;;15.05
74043;BMP280;62384;53.600;10.040;2022-10-30T02:35:20;101030.97;;;15.11
74043;BMP280;62384;53.600;10.040;2022-10-30T02:37:50;101028.56;;;15.06
74043;BMP280;62384;53.600;10.040;2022-10-30T02:40:16;101037.06;;;15.01
74043;BMP280;62384;53.600;10.040;2022-10-30T02:42:53;101028.19;;;15.04
74043;BMP280;62384;53.600;10.040;2022-10-30T02:45:19;101035.88;;;14.99
74043;BMP280;62384;53.600;10.040;2022-10-30T02:47:44;101037.41;;;14.96
74043;BMP280;62384;53.600;10.040;2022-10-30T02:50:09;101039.66;;;14.87
74043;BMP280;62384;53.600;10.040;2022-10-30T02:52:35;101028.44;;;14.89
74043;BMP280;62384;53.600;10.040;2022-10-30T02:55:03;101031.91;;;14.86
74043;BMP280;62384;53.600;10.040;2022-10-30T02:57:32;101036.97;;;14.87
74043;BMP280;62384;53.600;10.040;2022-10-30T02:59:59;101041.22;;;14.88
74043;BMP280;62384;53.600;10.040;2022-10-30T03:02:24;101048.91;;;14.86
74043;BMP280;62384;53.600;10.040;2022-10-30T03:04:52;101059.31;;;14.84
74043;BMP280;62384;53.600;10.040;2022-10-30T03:07:26;101053.91;;;14.81
74043;BMP280;62384;53.600;10.040;2022-10-30T03:09:52;101052.25;;;14.73
74043;BMP280;62384;53.600;10.040;2022-10-30T03:12:19;101053.03;;;14.73
74043;BMP280;62384;53.600;10.040;2022-10-30T03:14:44;101041.06;;;14.71
74043;BMP280;62384;53.600;10.040;2022-10-30T03:17:10;101051.19;;;14.77
74043;BMP280;62384;53.600;10.040;2022-10-30T03:19:38;101048.03;;;14.72
74043;BMP280;62384;53.600;10.040;2022-10-30T03:22:04;101053.81;;;14.70
74043;BMP280;62384;53.600;10.040;2022-10-30T03:24:30;101055.38;;;14.71
74043;BMP280;62384;53.600;10.040;2022-10-30T03:26:58;101070.03;;;14.70
74043;BMP280;62384;53.600;10.040;2022-10-30T03:29:23;101064.19;;;14.65
74043;BMP280;62384;53.600;10.040;2022-10-30T03:31:50;101066.13;;;14.64
74043;BMP280;62384;53.600;10.040;2022-10-30T03:34:15;101061.81;;;14.60
74043;BMP280;62384;53.600;10.040;2022-10-30T03:36:49;101060.22;;;14.55
74043;BMP280;62384;53.600;10.040;2022-10-30T03:39:15;101067.56;;;14.55
74043;BMP280;62384;53.600;10.040;2022-10-30T03:41:40;101065.63;;;14.55
74043;BMP280;62384;53.600;10.040;2022-10-30T03:44:10;101061.75;;;14.52
74043;BMP280;62384;53.600;10.040;2022-10-30T03:46:35;101061.72;;;14.49
74043;BMP280;62384;53.600;10.040;2022-10-30T03:49:04;101065.97;;;14.50
74043;BMP280;62384;53.600;10.040;2022-10-30T03:51:32;101063.69;;;14.52
74043;BMP280;62384;53.600;10.040;2022-10-30T03:53:58;101069.44;;;14.47
74043;BMP280;62384;53.600;10.040;2022-10-30T03:56:23;101075.19;;;14.42
74043;BMP280;62384;53.600;10.040;2022-10-30T03:58:48;101068.53;;;14.36
74043;BMP280;62384;53.600;10.040;2022-10-30T04:01:13;101072.44;;;14.38
74043;BMP280;62384;53.600;10.040;2022-10-30T04:03:39;101075.88;;;14.35
74043;BMP280;62384;53.600;10.040;2022-10-30T04:06:04;101075.38;;;14.26
74043;BMP280;62384;53.600;10.040;2022-10-30T04:08:30;101083.91;;;14.28
74043;BMP280;62384;53.600;10.040;2022-10-30T04:10:56;101080.03;;;14.29
74043;BMP280;62384;53.600;10.040;2022-10-30T04:13:24;101071.50;;;14.24
74043;BMP280;62384;53.600;10.040;2022-10-30T04:15:49;101073.44;;;14.27
74043;BMP280;62384;53.600;10.040;2022-10-30T04:18:15;101089.72;;;14.30
74043;BMP280;62384;53.600;10.040;2022-10-30T04:20:41;101083.94;;;14.32
74043;BMP280;62384;53.600;10.040;2022-10-30T04:23:13;101084.34;;;14.34
74043;BMP280;62384;53.600;10.040;2022-10-30T04:25:39;101089.75;;;14.34
74043;BMP280;62384;53.600;10.040;2022-10-30T04:28:04;101078.94;;;14.34
74043;BMP280;62384;53.600;10.040;2022-10-30T04:30:33;101087.13;;;14.41
74043;BMP280;62384;53.600;10.040;2022-10-30T04:33:00;101082.06;;;14.39
74043;BMP280;62384;53.600;10.040;2022-10-30T04:35:32;101067.00;;;14.35
74043;BMP280;62384;53.600;10.040;2022-10-30T04:38:03;101076.69;;;14.43
74043;BMP280;62384;53.600;10.040;2022-10-30T04:40:40;101074.03;;;14.46
74043;BMP280;62384;53.600;10.040;2022-10-30T04:43:09;101069.44;;;14.50
74043;BMP280;62384;53.600;10.040;2022-10-30T04:45:35;101073.34;;;14.53
74043;BMP280;62384;53.600;10.040;2022-10-30T04:48:02;101064.25;;;14.31
74043;BMP280;62384;53.600;10.040;2022-10-30T04:50:31;101058.47;;;14.33
74043;BMP280;62384;53.600;10.040;2022-10-30T04:53:05;101053.81;;;14.30
74043;BMP280;62384;53.600;10.040;2022-10-30T04:55:31;101045.63;;;14.23
74043;BMP280;62384;53.600;10.040;2022-10-30T04:57:57;101060.69;;;14.24
74043;BMP280;62384;53.600;10.040;2022-10-30T05:00:23;101058.03;;;14.27
74043;BMP280;62384;53.600;10.040;2022-10-30T05:02:49;101051.41;;;14.21
74043;BMP280;62384;53.600;10.040;2022-10-30T05:05:14;101045.59;;;14.19
74043;BMP280;62384;53.600;10.040;2022-10-30T05:07:40;101058.03;;;14.27
74043;BMP280;62384;53.600;10.040;2022-10-30T05:10:06;101058.38;;;14.22
74043;BMP280;62384;53.600;10.040;2022-10-30T05:12:31;101057.13;;;14.16
74043;BMP280;62384;53.600;10.040;2022-10-30T05:14:56;101048.28;;;14.16
74043;BMP280;62384;53.600;10.040;2022-10-30T05:17:21;101056.72;;;14.14
74043;BMP280;62384;53.600;10.040;2022-10-30T05:19:47;101057.50;;;14.15
74043;BMP280;62384;53.600;10.040;2022-10-30T05:22:15;101053.66;;;14.12
74043;BMP280;62384;53.600;10.040;2022-10-30T05:24:40;101049.75;;;14.13
74043;BMP280;62384;53.600;10.040;2022-10-30T05:27:05;101057.06;;;14.09
74043;BMP280;62384;53.600;10.040;2022-10-30T05:29:31;101068.31;;;14.15
74043;BMP280;62384;53.600;10.040;2022-10-30T05:32:05;101064.38;;;14.09
74043;BMP280;62384;53.600;10.040;2022-10-30T05:34:31;101065.16;;;14.09
74043;BMP280;62384;53.600;10.040;2022-10-30T05:36:56;101064.34;;;14.05
74043;BMP280;62384;53.600;10.040;2022-10-30T05:39:21;101058.16;;;14.05
74043;BMP280;62384;53.600;10.040;2022-10-30T05:41:49;101060.03;;;14.01
74043;BMP280;62384;53.600;10.040;2022-10-30T05:44:15;101057.31;;;14.01
74043;BMP280;62384;53.600;10.040;2022-10-30T05:46:40;101060.44;;;13.99
74043;BMP280;62384;53.600;10.040;2022-10-30T05:49:06;101065.00;;;13.95
74043;BMP280;62384;53.600;10.040;2022-10-30T05:51:31;101078.19;;;14.00
74043;BMP280;62384;53.600;10.040;2022-10-30T05:53:59;101069.69;;;14.02
74043;BMP280;62384;53.600;10.040;2022-10-30T05:56:25;101073.97;;;14.03
74043;BMP280;62384;53.600;10.040;2022-10-30T05:58:50;101081.00;;;14.11
74043;BMP280;62384;53.600;10.040;2022-10-30T06:01:16;101076.31;;;14.08
74043;BMP280;62384;53.600;10.040;2022-10-30T06:03:41;101086.41;;;14.11
74043;BMP280;62384;53.600;10.040;2022-10-30T06:06:07;101082.84;;;14.07
74043;BMP280;62384;53.600;10.040;2022-10-30T06:08:36;101092.91;;;14.06
74043;BMP280;62384;53.600;10.040;2022-10-30T06:11:01;101092.06;;;14.02
74043;BMP280;62384;53.600;10.040;2022-10-30T06:13:32;101089.38;;;14.02
74043;BMP280;62384;53.600;10.040;2022-10-30T06:16:00;101085.88;;;13.98
74043;BMP280;62384;53.600;10.040;2022-10-30T06:18:25;101088.13;;;13.93
74043;BMP280;62384;53.600;10.040;2022-10-30T06:20:51;101088.81;;;13.86
74043;BMP280;62384;53.600;10.040;2022-10-30T06:23:18;101088.81;;;13.86
74043;BMP280;62384;53.600;10.040;2022-10-30T06:25:43;101095.69;;;13.84
74043;BMP280;62384;53.600;10.040;2022-10-30T06:28:09;101096.13;;;13.86
74043;BMP280;62384;53.600;10.040;2022-10-30T06:30:35;101091.50;;;13.86
74043;BMP280;62384;53.600;10.040;2022-10-30T06:33:02;101101.16;;;13.87
74043;BMP280;62384;53.600;10.040;2022-10-30T06:35:28;101100.78;;;13.89
74043;BMP280;62384;53.600;10.040;2022-10-30T06:37:54;101109.63;;;13.86
74043;BMP280;62384;53.600;10.040;2022-10-30T06:40:21;101105.41;;;13.88
74043;BMP280;62384;53.600;10.040;2022-10-30T06:42:49;101105.47;;;13.95
74043;BMP280;62384;53.600;10.040;2022-10-30T06:45:16;101109.38;;;13.98
74043;BMP280;62384;53.600;10.040;2022-10-30T06:47:45;101090.63;;;13.79
74043;BMP280;62384;53.600;10.040;2022-10-30T06:50:13;101108.59;;;13.97
74043;BMP280;62384;53.600;10.040;2022-10-30T06:52:40;101121.41;;;14.04
74043;BMP280;62384;53.600;10.040;2022-10-30T06:55:07;101131.41;;;14.03
74043;BMP280;62384;53.600;10.040;2022-10-30T06:57:32;101126.47;;;14.05
74043;BMP280;62384;53.600;10.040;2022-10-30T06:59:58;101123.31;;;14.03
74043;BMP280;62384;53.600;10.040;2022-10-30T07:02:23;101122.19;;;14.04
74043;BMP280;62384;53.600;10.040;2022-10-30T07:04:48;101138.63;;;14.22
74043;BMP280;62384;53.600;10.040;2022-10-30T07:07:14;101153.44;;;14.35
74043;BMP280;62384;53.600;10.040;2022-10-30T07:09:40;101147.97;;;14.31
74043;BMP280;62384;53.600;10.040;2022-10-30T07:12:06;101148.41;;;14.37
74043;BMP280;62384;53.600;10.040;2022-10-30T07:14:31;101134.47;;;14.31
74043;BMP280;62384;53.600;10.040;2022-10-30T07:16:56;101143.06;;;14.40
74043;BMP280;62384;53.600;10.040;2022-10-30T07:19:22;101156.63;;;14.44
74043;BMP280;62384;53.600;10.040;2022-10-30T07:21:47;101149.63;;;14.43
74043;BMP280;62384;53.600;10.040;2022-10-30T07:24:13;101155.88;;;14.47
74043;BMP280;62384;53.600;10.040;2022-10-30T07:26:38;101155.91;;;14.50
74043;BMP280;62384;53.600;10.040;2022-10-30T07:29:04;101173.72;;;14.55
74043;BMP280;62384;53.600;10.040;2022-10-30T07:31:30;101176.03;;;14.53
74043;BMP280;62384;53.600;10.040;2022-10-30T07:33:55;101183.03;;;14.58
74043;BMP280;62384;53.600;10.040;2022-10-30T07:36:21;101188.13;;;14.66
74043;BMP280;62384;53.600;10.040;2022-10-30T07:38:51;101192.00;;;14.65
74043;BMP280;62384;53.600;10.040;2022-10-30T07:41:17;101193.56;;;14.70
74043;BMP280;62384;53.600;10.040;2022-10-30T07:43:43;101198.19;;;14.69
74043;BMP280;62384;53.600;10.040;2022-10-30T07:46:10;101194.78;;;14.76
74043;BMP280;62384;53.600;10.040;2022-10-30T07:48:38;101194.09;;;14.82
74043;BMP280;62384;53.600;10.040;2022-10-30T07:51:04;101199.91;;;14.84
74043;BMP280;62384;53.600;10.040;2022-10-30T07:53:30;101196.16;;;14.96
74043;BMP280;62384;53.600;10.040;2022-10-30T07:56:01;101202.09;;;15.08
74043;BMP280;62384;53.600;10.040;2022-10-30T07:58:26;101217.22;;;15.16
74043;BMP280;62384;53.600;10.040;2022-10-30T08:00:52;101237.41;;;15.26
74043;BMP280;62384;53.600;10.040;2022-10-30T08:03:17;101244.09;;;15.39
74043;BMP280;62384;53.600;10.040;2022-10-30T08:05:42;101265.78;;;15.46
74043;BMP280;62384;53.600;10.040;2022-10-30T08:08:09;101248.81;;;15.49
74043;BMP280;62384;53.600;10.040;2022-10-30T08:10:35;101260.59;;;15.71
74043;BMP280;62384;53.600;10.040;2022-10-30T08:13:01;101262.16;;;15.72
74043;BMP280;62384;53.600;10.040;2022-10-30T08:15:26;101266.81;;;15.78
74043;BMP280;62384;53.600;10.040;2022-10-30T08:17:52;101278.13;;;15.87
74043;BMP280;62384;53.600;10.040;2022-10-30T08:20:19;101287.09;;;15.98
74043;BMP280;62384;53.600;10.040;2022-10-30T08:22:52;101272.72;;;15.94
74043;BMP280;62384;53.600;10.040;2022-10-30T08:25:19;101261.91;;;15.91
74043;BMP280;62384;53.600;10.040;2022-10-30T08:27:49;101267.34;;;15.98
74043;BMP280;62384;53.600;10.040;2022-10-30T08:30:15;101268.53;;;16.00
74043;BMP280;62384;53.600;10.040;2022-10-30T08:32:41;101274.34;;;16.02
74043;BMP280;62384;53.600;10.040;2022-10-30T08:35:07;101280.19;;;16.11
74043;BMP280;62384;53.600;10.040;2022-10-30T08:37:32;101278.25;;;16.08
74043;BMP280;62384;53.600;10.040;2022-10-30T08:39:57;101280.19;;;16.08
74043;BMP280;62384;53.600;10.040;2022-10-30T08:42:22;101289.56;;;16.25
74043;BMP280;62384;53.600;10.040;2022-10-30T08:44:48;101289.59;;;16.32
74043;BMP280;62384;53.600;10.040;2022-10-30T08:47:13;101301.63;;;16.34
74043;BMP280;62384;53.600;10.040;2022-10-30T08:49:38;101321.38;;;16.42
74043;BMP280;62384;53.600;10.040;2022-10-30T08:52:07;101305.53;;;16.40
74043;BMP280;62384;53.600;10.040;2022-10-30T08:54:33;101309.75;;;16.41
74043;BMP280;62384;53.600;10.040;2022-10-30T08:56:58;101328.47;;;16.67
74043;BMP280;62384;53.600;10.040;2022-10-30T08:59:23;101335.97;;;16.95
74043;BMP280;62384;53.600;10.040;2022-10-30T09:01:49;101368.22;;;17.21
74043;BMP280;62384;53.600;10.040;2022-10-30T09:04:15;101381.84;;;17.49
74043;BMP280;62384;53.600;10.040;2022-10-30T09:06:40;101402.81;;;17.59
74043;BMP280;62384;53.600;10.040;2022-10-30T09:09:06;101410.56;;;17.82
74043;BMP280;62384;53.600;10.040;2022-10-30T09:11:34;101418.75;;;17.89
74043;BMP280;62384;53.600;10.040;2022-10-30T09:14:00;101439.66;;;18.10
74043;BMP280;62384;53.600;10.040;2022-10-30T09:16:25;101464.13;;;18.41
74043;BMP280;62384;53.600;10.040;2022-10-30T09:18:55;101469.50;;;18.55
74043;BMP280;62384;53.600;10.040;2022-10-30T09:21:21;101474.91;;;18.80
74043;BMP280;62384;53.600;10.040;2022-10-30T09:23:46;101494.72;;;18.91
74043;BMP280;62384;53.600;10.040;2022-10-30T09:26:11;101509.44;;;19.11
74043;BMP280;62384;53.600;10.040;2022-10-30T09:28:40;101517.53;;;19.15
74043;BMP280;62384;53.600;10.040;2022-10-30T09:31:05;101517.09;;;19.34
74043;BMP280;62384;53.600;10.040;2022-10-30T09:33:30;101504.28;;;19.27
74043;BMP280;62384;53.600;10.040;2022-10-30T09:35:56;101531.88;;;19.40
74043;BMP280;62384;53.600;10.040;2022-10-30T09:38:21;101497.69;;;19.21
74043;BMP280;62384;53.600;10.040;2022-10-30T09:41:09;101546.38;;;19.81
74043;BMP280;62384;53.600;10.040;2022-10-30T09:44:10;101554.69;;;20.18
74043;BMP280;62384;53.600;10.040;2022-10-30T09:49:40;101647.13;;;22.18
74043;BMP280;62384;53.600;10.040;2022-10-30T09:52:26;101658.06;;;24.30
74043;BMP280;62384;53.600;10.040;2022-10-30T09:54:59;101666.69;;;25.43
74043;BMP280;62384;53.600;10.040;2022-10-30T10:00:12;101650.19;;;25.81
74043;BMP280;62384;53.600;10.040;2022-10-30T10:05:54;101665.41;;;27.18
74043;BMP280;62384;53.600;10.040;2022-10-30T10:08:26;101663.94;;;28.65
74043;BMP280;62384;53.600;10.040;2022-10-30T10:10:57;101653.47;;;27.70
74043;BMP280;62384;53.600;10.040;2022-10-30T10:13:44;101666.56;;;28.69
74043;BMP280;62384;53.600;10.040;2022-10-30T10:16:33;101664.13;;;27.98
74043;BMP280;62384;53.600;10.040;2022-10-30T10:21:35;101655.66;;;27.35
74043;BMP280;62384;53.600;10.040;2022-10-30T10:24:03;101665.84;;;27.26
74043;BMP280;62384;53.600;10.040;2022-10-30T10:29:09;101650.44;;;27.95
74043;BMP280;62384;53.600;10.040;2022-10-30T10:35:05;101645.19;;;27.79
74043;BMP280;62384;53.600;10.040;2022-10-30T10:43:26;101627.72;;;25.82
74043;BMP280;62384;53.600;10.040;2022-10-30T10:46:19;101636.13;;;25.54
74043;BMP280;62384;53.600;10.040;2022-10-30T10:51:42;101635.38;;;24.99
74043;BMP280;62384;53.600;10.040;2022-10-30T10:56:42;101640.28;;;24.79
74043;BMP280;62384;53.600;10.040;2022-10-30T10:59:36;101639.38;;;23.93
74043;BMP280;62384;53.600;10.040;2022-10-30T11:02:23;101637.13;;;23.88
74043;BMP280;62384;53.600;10.040;2022-10-30T11:04:54;101632.34;;;23.40
74043;BMP280;62384;53.600;10.040;2022-10-30T11:07:27;101635.53;;;23.19
74043;BMP280;62384;53.600;10.040;2022-10-30T11:09:55;101624.59;;;23.00
74043;BMP280;62384;53.600;10.040;2022-10-30T11:12:43;101613.69;;;22.76
74043;BMP280;62384;53.600;10.040;2022-10-30T11:15:25;101619.94;;;23.16
74043;BMP280;62384;53.600;10.040;2022-10-30T11:18:09;101630.25;;;23.28
74043;BMP280;62384;53.600;10.040;2022-10-30T11:23:34;101644.41;;;24.43
74043;BMP280;62384;53.600;10.040;2022-10-30T11:29:04;101635.59;;;24.92
74043;BMP280;62384;53.600;10.040;2022-10-30T11:31:33;101633.13;;;25.10
74043;BMP280;62384;53.600;10.040;2022-10-30T11:34:34;101624.63;;;24.64
74043;BMP280;62384;53.600;10.040;2022-10-30T11:37:00;101618.19;;;23.93
74043;BMP280;62384;53.600;10.040;2022-10-30T11:39:30;101630.69;;;23.62
74043;BMP280;62384;53.600;10.040;2022-10-30T11:42:12;101637.75;;;23.44
74043;BMP280;62384;53.600;10.040;2022-10-30T11:44:47;101623.94;;;22.92
74043;BMP280;62384;53.600;10.040;2022-10-30T11:47:14;101620.63;;;22.81
74043;BMP280;62384;53.600;10.040;2022-10-30T11:50:02;101622.50;;;22.64
74043;BMP280;62384;53.600;10.040;2022-10-30T11:52:35;101619.63;;;22.52
74043;BMP280;62384;53.600;10.040;2022-10-30T11:55:13;101618.16;;;22.47
74043;BMP280;62384;53.600;10.040;2022-10-30T11:57:45;101620.66;;;22.35
74043;BMP280;62384;53.600;10.040;2022-10-30T12:00:17;101623.06;;;22.33
74043;BMP280;62384;53.600;10.040;2022-10-30T12:02:45;101613.97;;;22.16
74043;BMP280;62384;53.600;10.040;2022-10-30T12:08:16;101589.72;;;22.15
74043;BMP280;62384;53.600;10.040;2022-10-30T12:11:02;101601.06;;;22.40
74043;BMP280;62384;53.600;10.040;2022-10-30T12:13:32;101605.16;;;22.28
74043;BMP280;62384;53.600;10.040;2022-10-30T12:16:14;101592.69;;;22.27
74043;BMP280;62384;53.600;10.040;2022-10-30T12:18:40;101598.72;;;22.38
74043;BMP280;62384;53.600;10.040;2022-10-30T12:21:06;101609.03;;;22.54
74043;BMP280;62384;53.600;10.040;2022-10-30T12:23:33;101620.06;;;22.70
74043;BMP280;62384;53.600;10.040;2022-10-30T12:26:00;101606.59;;;22.59
74043;BMP280;62384;53.600;10.040;2022-10-30T12:28:31;101609.66;;;22.38
74043;BMP280;62384;53.600;10.040;2022-10-30T12:33:45;101617.88;;;22.38
74043;BMP280;62384;53.600;10.040;2022-10-30T12:36:19;101615.91;;;22.62
74043;BMP280;62384;53.600;10.040;2022-10-30T12:38:53;101605.88;;;22.55
74043;BMP280;62384;53.600;10.040;2022-10-30T12:41:55;101611.94;;;22.66
74043;BMP280;62384;53.600;10.040;2022-10-30T12:44:25;101615.38;;;22.70
74043;BMP280;62384;53.600;10.040;2022-10-30T12:47:12;101616.56;;;22.69
74043;BMP280;62384;53.600;10.040;2022-10-30T12:49:53;101605.97;;;22.48
74043;BMP280;62384;53.600;10.040;2022-10-30T12:52:47;101595.78;;;22.29
74043;BMP280;62384;53.600;10.040;2022-10-30T12:55:21;101602.66;;;22.14
74043;BMP280;62384;53.600;10.040;2022-10-30T13:00:33;101601.84;;;22.17
74043;BMP280;62384;53.600;10.040;2022-10-30T13:06:12;101597.66;;;22.09
74043;BMP280;62384;53.600;10.040;2022-10-30T13:09:03;101595.50;;;21.97
74043;BMP280;62384;53.600;10.040;2022-10-30T13:11:58;101595.56;;;21.94
74043;BMP280;62384;53.600;10.040;2022-10-30T13:14:46;101596.78;;;21.89
74043;BMP280;62384;53.600;10.040;2022-10-30T13:17:13;101587.84;;;21.85
74043;BMP280;62384;53.600;10.040;2022-10-30T13:19:40;101575.59;;;21.70
74043;BMP280;62384;53.600;10.040;2022-10-30T13:24:53;101581.91;;;21.67
74043;BMP280;62384;53.600;10.040;2022-10-30T13:30:34;101580.63;;;21.75
74043;BMP280;62384;53.600;10.040;2022-10-30T13:33:30;101581.75;;;21.77
74043;BMP280;62384;53.600;10.040;2022-10-30T13:36:08;101583.53;;;21.61
74043;BMP280;62384;53.600;10.040;2022-10-30T13:52:20;101557.75;;;21.35
74043;BMP280;62384;53.600;10.040;2022-10-30T13:55:13;101567.13;;;21.34
74043;BMP280;62384;53.600;10.040;2022-10-30T13:57:54;101567.63;;;21.52
74043;BMP280;62384;53.600;10.040;2022-10-30T14:00:43;101553.94;;;21.26
74043;BMP280;62384;53.600;10.040;2022-10-30T14:09:14;101530.50;;;20.98
74043;BMP280;62384;53.600;10.040;2022-10-30T14:11:18;101524.78;;;20.89
74043;BMP280;62384;53.600;10.040;2022-10-30T14:13:46;101539.16;;;20.90
74043;BMP280;62384;53.600;10.040;2022-10-30T14:19:12;101543.84;;;20.93
74043;BMP280;62384;53.600;10.040;2022-10-30T14:24:31;101531.56;;;20.74
74043;BMP280;62384;53.600;10.040;2022-10-30T14:32:00;101535.00;;;20.82
74043;BMP280;62384;53.600;10.040;2022-10-30T14:37:11;101539.38;;;20.72
74043;BMP280;62384;53.600;10.040;2022-10-30T14:39:43;101524.69;;;20.62
74043;BMP280;62384;53.600;10.040;2022-10-30T14:42:31;101530.94;;;20.59
74043;BMP280;62384;53.600;10.040;2022-10-30T14:50:37;101492.50;;;20.43
74043;BMP280;62384;53.600;10.040;2022-10-30T14:58:36;101482.59;;;20.23
74043;BMP280;62384;53.600;10.040;2022-10-30T15:03:44;101439.19;;;19.98
74043;BMP280;62384;53.600;10.040;2022-10-30T15:06:53;101419.81;;;19.86
74043;BMP280;62384;53.600;10.040;2022-10-30T15:14:56;101393.56;;;19.58
74043;BMP280;62384;53.600;10.040;2022-10-30T15:19:56;101349.09;;;19.24
74043;BMP280;62384;53.600;10.040;2022-10-30T15:22:25;101337.47;;;19.16
74043;BMP280;62384;53.600;10.040;2022-10-30T15:24:51;101336.75;;;19.05
74043;BMP280;62384;53.600;10.040;2022-10-30T15:27:21;101329.44;;;18.95
74043;BMP280;62384;53.600;10.040;2022-10-30T15:29:52;101327.53;;;18.89
74043;BMP280;62384;53.600;10.040;2022-10-30T15:32:20;101321.38;;;18.81
74043;BMP280;62384;53.600;10.040;2022-10-30T15:35:00;101306.66;;;18.71
74043;BMP280;62384;53.600;10.040;2022-10-30T15:37:27;101290.38;;;18.61
74043;BMP280;62384;53.600;10.040;2022-10-30T15:40:13;101289.97;;;18.62
74043;BMP280;62384;53.600;10.040;2022-10-30T15:42:41;101299.22;;;18.75
74043;BMP280;62384;53.600;10.040;2022-10-30T15:45:16;101285.81;;;18.44
74043;BMP280;62384;53.600;10.040;2022-10-30T15:47:47;101280.41;;;18.33
74043;BMP280;62384;53.600;10.040;2022-10-30T15:50:14;101254.03;;;18.23
74043;BMP280;62384;53.600;10.040;2022-10-30T15:52:41;101263.00;;;18.17
74043;BMP280;62384;53.600;10.040;2022-10-30T15:55:14;101256.41;;;18.11
74043;BMP280;62384;53.600;10.040;2022-10-30T15:57:46;101239.38;;;18.03